createdAt,value
2022-08-19T00:04:43.073Z,20.10
2022-08-19T00:10:46.890Z,20.00
2022-08-19T00:16:49.757Z,19.90
2022-08-19T00:22:52.974Z,19.80
2022-08-19T00:28:55.488Z,19.70
2022-08-19T00:34:57.693Z,19.70
2022-08-19T00:40:59.763Z,19.60
2022-08-19T00:47:01.582Z,19.60
2022-08-19T00:53:05.247Z,19.50
2022-08-19T00:59:10.129Z,19.60
2022-08-19T01:05:19.599Z,19.70
2022-08-19T01:11:22.176Z,19.60
2022-08-19T01:17:24.065Z,19.50
2022-08-19T01:23:43.463Z,19.40
2022-08-19T01:29:46.292Z,19.40
2022-08-19T01:35:52.483Z,19.20
2022-08-19T01:41:55.330Z,19.20
2022-08-19T01:48:02.093Z,19.30
2022-08-19T01:54:04.325Z,18.90
2022-08-19T02:00:11.749Z,18.70
2022-08-19T02:06:13.822Z,18.80
2022-08-19T02:12:17.342Z,18.80
2022-08-19T02:18:19.113Z,18.80
2022-08-19T02:24:20.882Z,18.80
2022-08-19T02:30:22.987Z,18.90
2022-08-19T02:36:26.106Z,18.90
2022-08-19T02:42:27.912Z,18.80
2022-08-19T02:48:29.731Z,18.70
2022-08-19T02:54:31.482Z,18.70
2022-08-19T03:00:33.397Z,18.60
2022-08-19T03:06:42.657Z,18.50
2022-08-19T03:12:44.395Z,18.60
2022-08-19T03:18:46.640Z,18.60
2022-08-19T03:24:48.562Z,18.70
2022-08-19T03:30:59.071Z,18.50
2022-08-19T03:37:10.783Z,18.50
2022-08-19T03:43:12.549Z,18.40
2022-08-19T03:49:14.772Z,18.40
2022-08-19T03:55:16.906Z,18.40
2022-08-19T04:01:21.568Z,18.30
2022-08-19T04:07:36.718Z,18.10
2022-08-19T04:13:39.384Z,18.10
2022-08-19T04:19:41.884Z,18.10
2022-08-19T04:25:44.723Z,18.10
2022-08-19T04:31:47.542Z,18.10
2022-08-19T04:37:49.655Z,18.10
2022-08-19T04:43:51.427Z,18.10
2022-08-19T04:49:53.238Z,18.00
2022-08-19T04:55:58.880Z,18.00
2022-08-19T05:02:01.954Z,18.10
2022-08-19T05:08:03.923Z,18.10
2022-08-19T05:14:09.172Z,18.00
2022-08-19T05:20:30.805Z,17.80
2022-08-19T05:26:32.544Z,17.80
2022-08-19T05:32:34.512Z,17.70
2022-08-19T05:38:36.831Z,17.60
2022-08-19T05:44:50.205Z,17.50
2022-08-19T05:50:52.106Z,17.80
2022-08-19T05:56:54.953Z,18.00
2022-08-19T06:03:00.692Z,18.00
2022-08-19T06:09:11.754Z,17.90
2022-08-19T06:15:15.292Z,17.80
2022-08-19T06:21:17.221Z,17.90
2022-08-19T06:27:19.930Z,18.10
2022-08-19T06:33:22.119Z,18.40
2022-08-19T06:39:26.980Z,18.50
2022-08-19T06:45:34.960Z,18.60
2022-08-19T06:51:44.503Z,18.60
2022-08-19T06:57:47.271Z,18.60
2022-08-19T07:03:49.727Z,18.50
2022-08-19T07:10:00.859Z,18.70
2022-08-19T07:16:13.635Z,18.70
2022-08-19T07:22:23.824Z,18.80
2022-08-19T07:28:26.191Z,18.90
2022-08-19T07:34:31.890Z,19.10
2022-08-19T07:40:33.921Z,19.30
2022-08-19T07:46:39.304Z,19.50
2022-08-19T07:52:41.503Z,19.50
2022-08-19T07:58:46.334Z,19.70
2022-08-19T08:05:07.077Z,19.80
2022-08-19T08:11:09.173Z,19.80
2022-08-19T08:17:12.148Z,20.00
2022-08-19T08:23:23.408Z,20.20
2022-08-19T08:29:26.888Z,20.50
2022-08-19T08:35:37.337Z,20.60
2022-08-19T08:42:10.375Z,20.70
2022-08-19T08:48:25.311Z,20.80
2022-08-19T08:54:32.086Z,20.90
2022-08-19T09:00:44.041Z,21.30
2022-08-19T09:07:22.875Z,21.40
2022-08-19T09:13:51.075Z,21.50
2022-08-19T09:20:03.008Z,21.60
2022-08-19T09:26:10.342Z,22.00
2022-08-19T09:32:26.469Z,22.10
2022-08-19T09:38:29.750Z,22.20
2022-08-19T09:44:31.791Z,22.30
2022-08-19T09:50:35.159Z,22.50
2022-08-19T09:56:37.240Z,22.50
2022-08-19T10:02:39.311Z,22.80
2022-08-19T10:08:49.877Z,22.90
2022-08-19T10:14:54.399Z,23.10
2022-08-19T10:21:14.730Z,23.30
2022-08-19T10:27:17.381Z,23.40
2022-08-19T10:33:38.891Z,23.50
2022-08-19T10:39:43.362Z,23.60
2022-08-19T10:45:53.247Z,23.90
2022-08-19T10:52:20.189Z,24.10
2022-08-19T10:58:27.061Z,24.40
2022-08-19T11:04:29.685Z,24.50
2022-08-19T11:10:31.954Z,24.60
2022-08-19T11:16:34.034Z,24.60
2022-08-19T11:22:40.528Z,24.90
2022-08-19T11:28:43.439Z,24.80
2022-08-19T11:34:45.738Z,25.00
2022-08-19T11:41:02.506Z,25.10
2022-08-19T11:47:09.114Z,25.40
2022-08-19T11:53:11.398Z,25.50
2022-08-19T11:59:14.959Z,25.90
2022-08-19T12:05:17.150Z,25.70
2022-08-19T12:11:19.771Z,25.90
2022-08-19T12:17:22.206Z,26.30
2022-08-19T12:23:24.528Z,26.20
2022-08-19T12:29:29.725Z,26.50
2022-08-19T12:35:31.877Z,26.60
2022-08-19T12:41:34.077Z,26.60
2022-08-19T12:47:38.010Z,26.80
2022-08-19T12:53:43.289Z,26.80
2022-08-19T12:59:45.958Z,27.00
2022-08-19T13:05:47.979Z,27.30
2022-08-19T13:11:50.953Z,27.50
2022-08-19T13:17:54.940Z,27.60
2022-08-19T13:23:58.508Z,27.60
2022-08-19T13:30:19.912Z,27.60
2022-08-19T13:36:21.948Z,27.60
2022-08-19T13:42:30.933Z,27.50
2022-08-19T13:48:32.943Z,27.50
2022-08-19T13:54:34.986Z,27.80
2022-08-19T14:00:40.702Z,27.60
2022-08-19T14:06:42.785Z,27.90
2022-08-19T14:12:44.901Z,27.40
2022-08-19T14:18:47.163Z,26.80
2022-08-19T14:24:49.291Z,26.90
2022-08-19T14:30:51.152Z,27.20
2022-08-19T14:36:59.495Z,27.30
2022-08-19T14:43:05.474Z,27.50
2022-08-19T14:49:09.541Z,27.80
2022-08-19T14:55:11.821Z,27.90
2022-08-19T15:01:14.494Z,28.30
2022-08-19T15:07:16.995Z,27.90
2022-08-19T15:13:19.300Z,27.00
2022-08-19T15:19:21.353Z,26.20
2022-08-19T15:25:23.256Z,26.00
2022-08-19T15:31:28.417Z,26.00
2022-08-19T15:37:31.083Z,25.70
2022-08-19T15:43:33.778Z,25.70
2022-08-19T15:49:36.314Z,26.00
2022-08-19T15:55:46.284Z,25.90
2022-08-19T16:02:08.248Z,25.80
2022-08-19T16:08:13.481Z,25.70
2022-08-19T16:14:18.386Z,25.60
2022-08-19T16:20:24.113Z,25.70
2022-08-19T16:26:31.124Z,26.00
2022-08-19T16:32:34.027Z,25.90
2022-08-19T16:38:37.745Z,25.70
2022-08-19T16:44:43.806Z,25.70
2022-08-19T16:50:49.437Z,26.10
2022-08-19T16:56:52.233Z,26.30
2022-08-19T17:02:54.376Z,26.20
2022-08-19T17:08:59.353Z,25.80
2022-08-19T17:15:02.846Z,25.90
2022-08-19T17:21:05.060Z,25.90
2022-08-19T17:27:07.189Z,25.80
2022-08-19T17:33:09.348Z,25.70
2022-08-19T17:39:11.801Z,25.50
2022-08-19T17:45:14.646Z,25.40
2022-08-19T17:51:24.142Z,25.20
2022-08-19T17:57:26.843Z,25.00
2022-08-19T18:03:30.404Z,25.00
2022-08-19T18:09:41.658Z,24.90
2022-08-19T18:15:44.630Z,24.80
2022-08-19T18:21:47.955Z,24.60
2022-08-19T18:27:51.793Z,24.40
2022-08-19T18:33:54.127Z,24.30
2022-08-19T18:40:16.243Z,24.30
2022-08-19T18:46:37.161Z,24.20
2022-08-19T18:52:40.121Z,24.00
2022-08-19T18:58:43.201Z,23.90
2022-08-19T19:04:45.787Z,23.90
2022-08-19T19:10:47.937Z,23.80
2022-08-19T19:16:53.011Z,23.90
2022-08-19T19:22:57.759Z,23.80
2022-08-19T19:29:00.224Z,23.60
2022-08-19T19:35:02.215Z,23.60
2022-08-19T19:41:07.462Z,23.70
2022-08-19T19:47:10.280Z,23.40
2022-08-19T19:53:15.279Z,23.30
2022-08-19T19:59:17.813Z,23.20
2022-08-19T20:05:23.412Z,23.00
2022-08-19T20:11:49.865Z,22.90
2022-08-19T20:17:56.179Z,22.80
2022-08-19T20:24:09.172Z,22.80
2022-08-19T20:30:19.630Z,22.70
2022-08-19T20:36:23.618Z,22.80
2022-08-19T20:42:25.589Z,22.80
2022-08-19T20:48:27.573Z,22.70
2022-08-19T20:54:29.848Z,22.40
2022-08-19T21:00:31.730Z,22.50
2022-08-19T21:06:34.219Z,22.40
2022-08-19T21:12:36.099Z,22.40
2022-08-19T21:18:38.092Z,22.20
2022-08-19T21:24:40.103Z,22.10
2022-08-19T21:30:41.931Z,22.00
2022-08-19T21:36:43.881Z,22.00
2022-08-19T21:42:46.842Z,22.00
2022-08-19T21:48:49.463Z,22.20
2022-08-19T21:54:52.138Z,22.10
2022-08-19T22:00:54.245Z,22.20
2022-08-19T22:06:56.722Z,22.20
2022-08-19T22:12:59.094Z,22.10
2022-08-19T22:19:01.058Z,22.00
2022-08-19T22:25:31.222Z,22.10
2022-08-19T22:31:33.959Z,22.10
2022-08-19T22:37:35.891Z,22.10
2022-08-19T22:43:38.108Z,22.10
2022-08-19T22:49:40.130Z,22.10
2022-08-19T22:55:41.954Z,21.90
2022-08-19T23:01:44.035Z,22.00
2022-08-19T23:07:50.114Z,21.90
2022-08-19T23:13:54.198Z,21.80
2022-08-19T23:19:56.047Z,21.70
2022-08-19T23:25:57.976Z,21.70
2022-08-19T23:32:00.034Z,21.70
2022-08-19T23:38:02.150Z,21.70
2022-08-19T23:44:04.264Z,21.70
2022-08-19T23:50:07.511Z,21.80
2022-08-19T23:56:10.704Z,21.60
